sensor_id;sensor_type;location;lat;lon;timestamp;temperature;humidity
9668;DHT22;4872;48.316;10.650;2022-10-20T04:13:14;11.70;99.90
9668;DHT22;4872;48.316;10.650;2022-10-20T04:15:41;11.70;99.90
9668;DHT22;4872;48.316;10.650;2022-10-20T04:18:08;11.80;99.90
9668;DHT22;4872;48.316;10.650;2022-10-20T04:20:34;11.80;99.90
9668;DHT22;4872;48.316;10.650;2022-10-20T04:23:01;11.90;99.90
9668;DHT22;4872;48.316;10.650;2022-10-20T04:25:28;11.80;99.90
9668;DHT22;4872;48.316;10.650;2022-10-20T04:27:55;11.80;99.90
9668;DHT22;4872;48.316;10.650;2022-10-20T04:30:23;11.80;99.90
9668;DHT22;4872;48.316;10.650;2022-10-20T04:32:50;11.90;99.90
9668;DHT22;4872;48.316;10.650;2022-10-20T04:35:16;11.80;99.90
9668;DHT22;4872;48.316;10.650;2022-10-20T04:37:43;11.90;99.90
9668;DHT22;4872;48.316;10.650;2022-10-20T04:40:10;11.90;99.90
9668;DHT22;4872;48.316;10.650;2022-10-20T04:42:37;11.80;99.90
9668;DHT22;4872;48.316;10.650;2022-10-20T04:45:05;11.80;99.90
9668;DHT22;4872;48.316;10.650;2022-10-20T04:47:33;11.90;99.90
9668;DHT22;4872;48.316;10.650;2022-10-20T04:50:02;11.90;99.90
9668;DHT22;4872;48.316;10.650;2022-10-20T04:52:28;11.90;99.90
9668;DHT22;4872;48.316;10.650;2022-10-20T04:54:55;11.90;99.90
9668;DHT22;4872;48.316;10.650;2022-10-20T04:57:22;11.90;99.90
9668;DHT22;4872;48.316;10.650;2022-10-20T04:59:49;11.80;99.90
9668;DHT22;4872;48.316;10.650;2022-10-20T05:02:16;11.90;99.90
9668;DHT22;4872;48.316;10.650;2022-10-20T05:04:45;12.00;99.90
9668;DHT22;4872;48.316;10.650;2022-10-20T05:07:12;12.10;99.90
9668;DHT22;4872;48.316;10.650;2022-10-20T05:09:38;12.00;99.90
9668;DHT22;4872;48.316;10.650;2022-10-20T05:12:05;12.10;99.90
9668;DHT22;4872;48.316;10.650;2022-10-20T05:14:32;12.10;99.90
9668;DHT22;4872;48.316;10.650;2022-10-20T05:16:59;12.10;99.90
9668;DHT22;4872;48.316;10.650;2022-10-20T05:19:25;12.00;99.90
9668;DHT22;4872;48.316;10.650;2022-10-20T05:21:54;12.00;99.90
9668;DHT22;4872;48.316;10.650;2022-10-20T05:24:21;12.00;99.90
9668;DHT22;4872;48.316;10.650;2022-10-20T05:26:48;12.00;99.90
9668;DHT22;4872;48.316;10.650;2022-10-20T05:29:15;11.90;99.90
9668;DHT22;4872;48.316;10.650;2022-10-20T05:31:42;11.90;99.90
9668;DHT22;4872;48.316;10.650;2022-10-20T05:34:10;11.90;99.90
9668;DHT22;4872;48.316;10.650;2022-10-20T05:36:37;11.90;99.90
9668;DHT22;4872;48.316;10.650;2022-10-20T05:39:06;11.90;99.90
9668;DHT22;4872;48.316;10.650;2022-10-20T05:41:33;11.90;99.90
9668;DHT22;4872;48.316;10.650;2022-10-20T05:44:01;11.90;99.90
9668;DHT22;4872;48.316;10.650;2022-10-20T05:46:31;11.90;99.90
9668;DHT22;4872;48.316;10.650;2022-10-20T05:49:00;11.90;99.90
9668;DHT22;4872;48.316;10.650;2022-10-20T05:51:29;11.90;99.90
9668;DHT22;4872;48.316;10.650;2022-10-20T05:53:57;11.90;99.90
9668;DHT22;4872;48.316;10.650;2022-10-20T05:56:27;12.00;99.90
9668;DHT22;4872;48.316;10.650;2022-10-20T05:58:55;12.00;99.90
9668;DHT22;4872;48.316;10.650;2022-10-20T06:01:24;12.00;99.90
9668;DHT22;4872;48.316;10.650;2022-10-20T06:03:52;12.00;99.90
9668;DHT22;4872;48.316;10.650;2022-10-20T06:06:22;12.00;99.90
9668;DHT22;4872;48.316;10.650;2022-10-20T06:08:49;11.90;99.90
9668;DHT22;4872;48.316;10.650;2022-10-20T06:11:17;11.90;99.90
9668;DHT22;4872;48.316;10.650;2022-10-20T06:13:45;11.90;99.90
9668;DHT22;4872;48.316;10.650;2022-10-20T06:16:13;11.90;99.90
9668;DHT22;4872;48.316;10.650;2022-10-20T06:18:41;11.90;99.90
9668;DHT22;4872;48.316;10.650;2022-10-20T06:21:10;11.90;99.90
9668;DHT22;4872;48.316;10.650;2022-10-20T06:23:37;11.90;99.90
9668;DHT22;4872;48.316;10.650;2022-10-20T06:26:06;12.00;99.90
9668;DHT22;4872;48.316;10.650;2022-10-20T06:28:34;12.00;99.90
9668;DHT22;4872;48.316;10.650;2022-10-20T06:31:09;12.00;99.90
9668;DHT22;4872;48.316;10.650;2022-10-20T06:33:37;12.00;99.90
9668;DHT22;4872;48.316;10.650;2022-10-20T06:36:04;12.00;99.90
9668;DHT22;4872;48.316;10.650;2022-10-20T06:38:31;12.00;99.90
9668;DHT22;4872;48.316;10.650;2022-10-20T06:41:00;12.00;99.90
9668;DHT22;4872;48.316;10.650;2022-10-20T06:43:27;12.10;99.90
9668;DHT22;4872;48.316;10.650;2022-10-20T06:45:54;12.10;99.90
9668;DHT22;4872;48.316;10.650;2022-10-20T06:48:23;12.10;99.90
9668;DHT22;4872;48.316;10.650;2022-10-20T06:50:52;12.10;99.90
9668;DHT22;4872;48.316;10.650;2022-10-20T06:53:21;12.10;99.90
9668;DHT22;4872;48.316;10.650;2022-10-20T06:55:54;12.10;99.90
9668;DHT22;4872;48.316;10.650;2022-10-20T06:58:21;12.10;99.90
9668;DHT22;4872;48.316;10.650;2022-10-20T07:00:56;12.10;99.90
9668;DHT22;4872;48.316;10.650;2022-10-20T07:03:25;12.10;99.90
9668;DHT22;4872;48.316;10.650;2022-10-20T07:05:52;12.20;99.90
9668;DHT22;4872;48.316;10.650;2022-10-20T07:08:19;12.20;99.90
9668;DHT22;4872;48.316;10.650;2022-10-20T07:10:46;12.10;99.90
9668;DHT22;4872;48.316;10.650;2022-10-20T07:13:13;12.20;99.90
9668;DHT22;4872;48.316;10.650;2022-10-20T07:15:40;12.20;99.90
9668;DHT22;4872;48.316;10.650;2022-10-20T07:18:07;12.10;99.90
9668;DHT22;4872;48.316;10.650;2022-10-20T07:20:35;12.10;99.90
9668;DHT22;4872;48.316;10.650;2022-10-20T07:23:02;12.10;99.90
9668;DHT22;4872;48.316;10.650;2022-10-20T07:25:29;12.10;99.90
9668;DHT22;4872;48.316;10.650;2022-10-20T07:27:56;12.10;99.90
9668;DHT22;4872;48.316;10.650;2022-10-20T07:30:23;12.10;99.90
9668;DHT22;4872;48.316;10.650;2022-10-20T07:32:50;12.10;99.90
9668;DHT22;4872;48.316;10.650;2022-10-20T07:35:16;12.10;99.90
9668;DHT22;4872;48.316;10.650;2022-10-20T07:37:45;12.10;99.90
9668;DHT22;4872;48.316;10.650;2022-10-20T07:40:12;12.10;99.90
9668;DHT22;4872;48.316;10.650;2022-10-20T07:42:39;12.10;99.90
9668;DHT22;4872;48.316;10.650;2022-10-20T07:45:06;12.10;99.90
9668;DHT22;4872;48.316;10.650;2022-10-20T07:47:33;12.00;99.90
9668;DHT22;4872;48.316;10.650;2022-10-20T07:50:00;12.00;99.90
9668;DHT22;4872;48.316;10.650;2022-10-20T07:52:27;12.00;99.90
9668;DHT22;4872;48.316;10.650;2022-10-20T07:54:56;12.10;99.90
9668;DHT22;4872;48.316;10.650;2022-10-20T07:57:23;12.10;99.90
9668;DHT22;4872;48.316;10.650;2022-10-20T07:59:50;12.00;99.90
9668;DHT22;4872;48.316;10.650;2022-10-20T08:02:17;12.10;99.90
9668;DHT22;4872;48.316;10.650;2022-10-20T08:04:45;12.10;99.90
9668;DHT22;4872;48.316;10.650;2022-10-20T08:07:12;12.10;99.90
9668;DHT22;4872;48.316;10.650;2022-10-20T08:09:38;12.10;99.90
9668;DHT22;4872;48.316;10.650;2022-10-20T08:12:07;12.20;99.90
9668;DHT22;4872;48.316;10.650;2022-10-20T08:14:34;12.20;99.90
9668;DHT22;4872;48.316;10.650;2022-10-20T08:17:03;12.10;99.90
9668;DHT22;4872;48.316;10.650;2022-10-20T08:19:30;12.10;99.90
9668;DHT22;4872;48.316;10.650;2022-10-20T08:21:57;12.10;99.90
9668;DHT22;4872;48.316;10.650;2022-10-20T08:24:23;12.00;99.90
9668;DHT22;4872;48.316;10.650;2022-10-20T08:26:50;12.10;99.90
9668;DHT22;4872;48.316;10.650;2022-10-20T08:29:18;12.10;99.90
9668;DHT22;4872;48.316;10.650;2022-10-20T08:31:45;12.10;99.90
9668;DHT22;4872;48.316;10.650;2022-10-20T08:34:12;12.10;99.90
9668;DHT22;4872;48.316;10.650;2022-10-20T08:36:39;12.20;99.90
9668;DHT22;4872;48.316;10.650;2022-10-20T08:39:06;12.30;99.90
9668;DHT22;4872;48.316;10.650;2022-10-20T08:41:36;12.20;99.90
9668;DHT22;4872;48.316;10.650;2022-10-20T08:44:05;12.20;99.90
9668;DHT22;4872;48.316;10.650;2022-10-20T08:46:35;12.20;99.90
9668;DHT22;4872;48.316;10.650;2022-10-20T08:49:05;12.30;99.90
9668;DHT22;4872;48.316;10.650;2022-10-20T08:51:34;12.20;99.90
9668;DHT22;4872;48.316;10.650;2022-10-20T08:54:04;12.30;99.90
9668;DHT22;4872;48.316;10.650;2022-10-20T08:56:32;12.30;99.90
9668;DHT22;4872;48.316;10.650;2022-10-20T08:59:00;12.30;99.90
9668;DHT22;4872;48.316;10.650;2022-10-20T09:01:29;12.40;99.90
9668;DHT22;4872;48.316;10.650;2022-10-20T09:04:17;12.40;99.90
9668;DHT22;4872;48.316;10.650;2022-10-20T09:06:47;12.50;99.90
9668;DHT22;4872;48.316;10.650;2022-10-20T09:09:18;12.50;99.90
9668;DHT22;4872;48.316;10.650;2022-10-20T09:11:45;12.50;99.90
9668;DHT22;4872;48.316;10.650;2022-10-20T09:14:13;12.50;99.90
9668;DHT22;4872;48.316;10.650;2022-10-20T09:16:42;12.50;99.90
9668;DHT22;4872;48.316;10.650;2022-10-20T09:19:16;12.50;99.90
9668;DHT22;4872;48.316;10.650;2022-10-20T09:21:45;12.60;99.90
9668;DHT22;4872;48.316;10.650;2022-10-20T09:24:15;12.60;99.90
9668;DHT22;4872;48.316;10.650;2022-10-20T09:26:44;12.70;99.90
9668;DHT22;4872;48.316;10.650;2022-10-20T09:29:12;12.70;99.90
9668;DHT22;4872;48.316;10.650;2022-10-20T09:31:41;12.80;99.90
9668;DHT22;4872;48.316;10.650;2022-10-20T09:34:25;12.80;99.90
9668;DHT22;4872;48.316;10.650;2022-10-20T09:36:55;12.80;99.90
9668;DHT22;4872;48.316;10.650;2022-10-20T09:39:25;12.70;99.90
9668;DHT22;4872;48.316;10.650;2022-10-20T09:41:59;12.70;99.90
9668;DHT22;4872;48.316;10.650;2022-10-20T09:44:30;12.70;99.90
9668;DHT22;4872;48.316;10.650;2022-10-20T09:46:59;12.50;99.90
9668;DHT22;4872;48.316;10.650;2022-10-20T09:49:29;12.70;99.90
9668;DHT22;4872;48.316;10.650;2022-10-20T09:51:59;12.70;99.90
9668;DHT22;4872;48.316;10.650;2022-10-20T09:54:27;12.70;99.90
9668;DHT22;4872;48.316;10.650;2022-10-20T09:57:03;12.70;99.90
9668;DHT22;4872;48.316;10.650;2022-10-20T09:59:33;12.70;99.90
9668;DHT22;4872;48.316;10.650;2022-10-20T10:02:04;12.80;99.90
9668;DHT22;4872;48.316;10.650;2022-10-20T10:04:53;12.80;99.90
9668;DHT22;4872;48.316;10.650;2022-10-20T10:07:29;12.80;99.90
9668;DHT22;4872;48.316;10.650;2022-10-20T10:09:59;12.90;99.90
9668;DHT22;4872;48.316;10.650;2022-10-20T10:12:28;13.00;99.90
9668;DHT22;4872;48.316;10.650;2022-10-20T10:15:00;13.00;99.90
9668;DHT22;4872;48.316;10.650;2022-10-20T10:17:28;13.00;99.90
9668;DHT22;4872;48.316;10.650;2022-10-20T10:19:57;13.10;99.90
9668;DHT22;4872;48.316;10.650;2022-10-20T10:22:24;13.10;99.90
9668;DHT22;4872;48.316;10.650;2022-10-20T10:24:54;13.20;99.90
9668;DHT22;4872;48.316;10.650;2022-10-20T10:27:24;13.20;99.90
9668;DHT22;4872;48.316;10.650;2022-10-20T10:29:52;13.20;99.90
9668;DHT22;4872;48.316;10.650;2022-10-20T10:32:23;13.20;99.90
9668;DHT22;4872;48.316;10.650;2022-10-20T10:35:05;13.20;99.90
9668;DHT22;4872;48.316;10.650;2022-10-20T10:37:36;13.20;99.90
9668;DHT22;4872;48.316;10.650;2022-10-20T10:40:12;13.30;99.90
9668;DHT22;4872;48.316;10.650;2022-10-20T10:42:48;13.20;99.90
9668;DHT22;4872;48.316;10.650;2022-10-20T10:45:26;13.20;99.90
9668;DHT22;4872;48.316;10.650;2022-10-20T10:51:03;13.20;99.90
9668;DHT22;4872;48.316;10.650;2022-10-20T10:53:43;13.30;99.90
9668;DHT22;4872;48.316;10.650;2022-10-20T10:56:20;13.30;99.90
9668;DHT22;4872;48.316;10.650;2022-10-20T10:58:54;13.30;99.90
9668;DHT22;4872;48.316;10.650;2022-10-20T11:01:33;13.30;99.90
9668;DHT22;4872;48.316;10.650;2022-10-20T11:04:19;13.30;99.90
9668;DHT22;4872;48.316;10.650;2022-10-20T11:06:56;13.50;99.90
9668;DHT22;4872;48.316;10.650;2022-10-20T11:09:32;13.40;99.90
9668;DHT22;4872;48.316;10.650;2022-10-20T11:12:25;13.40;99.90
9668;DHT22;4872;48.316;10.650;2022-10-20T11:15:11;13.40;99.90
9668;DHT22;4872;48.316;10.650;2022-10-20T11:17:48;13.40;99.90
9668;DHT22;4872;48.316;10.650;2022-10-20T11:20:26;13.50;99.90
9668;DHT22;4872;48.316;10.650;2022-10-20T11:23:16;13.50;99.90
9668;DHT22;4872;48.316;10.650;2022-10-20T11:25:48;13.50;99.90
9668;DHT22;4872;48.316;10.650;2022-10-20T11:28:26;13.40;99.90
9668;DHT22;4872;48.316;10.650;2022-10-20T11:30:55;13.50;99.90
9668;DHT22;4872;48.316;10.650;2022-10-20T11:33:25;13.50;99.90
9668;DHT22;4872;48.316;10.650;2022-10-20T11:35:57;13.50;99.90
9668;DHT22;4872;48.316;10.650;2022-10-20T11:38:29;13.50;99.90
9668;DHT22;4872;48.316;10.650;2022-10-20T11:41:00;13.60;99.90
9668;DHT22;4872;48.316;10.650;2022-10-20T11:43:33;13.60;99.90
9668;DHT22;4872;48.316;10.650;2022-10-20T11:46:04;13.70;99.90
9668;DHT22;4872;48.316;10.650;2022-10-20T11:48:37;13.70;99.90
9668;DHT22;4872;48.316;10.650;2022-10-20T11:51:24;13.60;99.90
9668;DHT22;4872;48.316;10.650;2022-10-20T11:54:12;13.60;99.90
9668;DHT22;4872;48.316;10.650;2022-10-20T11:56:57;13.60;99.90
9668;DHT22;4872;48.316;10.650;2022-10-20T12:00:01;13.60;99.90
9668;DHT22;4872;48.316;10.650;2022-10-20T12:05:47;13.60;99.90
9668;DHT22;4872;48.316;10.650;2022-10-20T12:08:35;13.60;99.90
9668;DHT22;4872;48.316;10.650;2022-10-20T12:11:13;13.60;99.90
9668;DHT22;4872;48.316;10.650;2022-10-20T12:13:50;13.60;99.90
9668;DHT22;4872;48.316;10.650;2022-10-20T12:19:26;13.60;99.90
9668;DHT22;4872;48.316;10.650;2022-10-20T12:21:55;13.60;99.90
9668;DHT22;4872;48.316;10.650;2022-10-20T12:24:34;13.60;99.90
9668;DHT22;4872;48.316;10.650;2022-10-20T12:27:16;13.60;99.90
9668;DHT22;4872;48.316;10.650;2022-10-20T12:30:01;13.50;99.90
9668;DHT22;4872;48.316;10.650;2022-10-20T12:32:53;13.50;99.90
9668;DHT22;4872;48.316;10.650;2022-10-20T12:38:29;13.50;99.90
9668;DHT22;4872;48.316;10.650;2022-10-20T12:40:58;13.50;99.90
9668;DHT22;4872;48.316;10.650;2022-10-20T12:43:47;13.60;99.90
9668;DHT22;4872;48.316;10.650;2022-10-20T12:46:21;13.60;99.90
9668;DHT22;4872;48.316;10.650;2022-10-20T12:48:50;13.60;99.90
9668;DHT22;4872;48.316;10.650;2022-10-20T12:51:40;13.60;99.90
9668;DHT22;4872;48.316;10.650;2022-10-20T12:54:20;13.70;99.90
9668;DHT22;4872;48.316;10.650;2022-10-20T12:56:50;13.70;99.90
9668;DHT22;4872;48.316;10.650;2022-10-20T12:59:36;13.70;99.90
9668;DHT22;4872;48.316;10.650;2022-10-20T13:05:44;13.70;99.90
9668;DHT22;4872;48.316;10.650;2022-10-20T13:08:28;13.70;99.90
9668;DHT22;4872;48.316;10.650;2022-10-20T13:10:56;13.70;99.90
9668;DHT22;4872;48.316;10.650;2022-10-20T13:13:57;13.70;99.90
9668;DHT22;4872;48.316;10.650;2022-10-20T13:16:29;13.60;99.90
9668;DHT22;4872;48.316;10.650;2022-10-20T13:18:58;13.70;99.90
9668;DHT22;4872;48.316;10.650;2022-10-20T13:21:31;13.70;99.90
9668;DHT22;4872;48.316;10.650;2022-10-20T13:24:07;13.70;99.90
9668;DHT22;4872;48.316;10.650;2022-10-20T13:26:49;13.70;99.90
9668;DHT22;4872;48.316;10.650;2022-10-20T13:29:24;13.80;99.90
9668;DHT22;4872;48.316;10.650;2022-10-20T13:32:03;13.80;99.90
9668;DHT22;4872;48.316;10.650;2022-10-20T13:34:38;13.80;99.90
9668;DHT22;4872;48.316;10.650;2022-10-20T13:37:26;13.90;99.90
9668;DHT22;4872;48.316;10.650;2022-10-20T13:40:02;13.90;99.90
9668;DHT22;4872;48.316;10.650;2022-10-20T13:42:41;14.00;99.90
9668;DHT22;4872;48.316;10.650;2022-10-20T13:45:20;14.10;99.90
9668;DHT22;4872;48.316;10.650;2022-10-20T13:48:01;14.20;99.90
9668;DHT22;4872;48.316;10.650;2022-10-20T13:50:33;14.20;99.90
9668;DHT22;4872;48.316;10.650;2022-10-20T13:53:03;14.10;99.90
9668;DHT22;4872;48.316;10.650;2022-10-20T13:55:52;14.10;99.90
9668;DHT22;4872;48.316;10.650;2022-10-20T13:58:22;14.00;99.90
9668;DHT22;4872;48.316;10.650;2022-10-20T14:00:55;13.90;99.90
9668;DHT22;4872;48.316;10.650;2022-10-20T14:03:24;13.90;99.90
9668;DHT22;4872;48.316;10.650;2022-10-20T14:05:51;13.90;99.90
9668;DHT22;4872;48.316;10.650;2022-10-20T14:08:19;13.90;99.90
9668;DHT22;4872;48.316;10.650;2022-10-20T14:10:48;13.80;99.90
9668;DHT22;4872;48.316;10.650;2022-10-20T14:13:18;13.70;99.90
9668;DHT22;4872;48.316;10.650;2022-10-20T14:15:47;13.70;99.90
9668;DHT22;4872;48.316;10.650;2022-10-20T14:18:24;13.60;99.90
9668;DHT22;4872;48.316;10.650;2022-10-20T14:20:57;13.60;99.90
9668;DHT22;4872;48.316;10.650;2022-10-20T14:23:29;13.50;99.90
9668;DHT22;4872;48.316;10.650;2022-10-20T14:25:59;13.50;99.90
9668;DHT22;4872;48.316;10.650;2022-10-20T14:28:28;13.50;99.90
9668;DHT22;4872;48.316;10.650;2022-10-20T14:30:57;13.50;99.90
9668;DHT22;4872;48.316;10.650;2022-10-20T14:33:26;13.40;99.90
9668;DHT22;4872;48.316;10.650;2022-10-20T14:35:55;13.40;99.90
9668;DHT22;4872;48.316;10.650;2022-10-20T14:38:26;13.30;99.90
9668;DHT22;4872;48.316;10.650;2022-10-20T14:40:56;13.40;99.90
9668;DHT22;4872;48.316;10.650;2022-10-20T14:43:29;13.30;99.90
9668;DHT22;4872;48.316;10.650;2022-10-20T14:46:00;13.20;99.90
9668;DHT22;4872;48.316;10.650;2022-10-20T14:48:32;13.20;99.90
9668;DHT22;4872;48.316;10.650;2022-10-20T14:51:01;13.20;99.90
9668;DHT22;4872;48.316;10.650;2022-10-20T14:53:31;13.10;99.90
9668;DHT22;4872;48.316;10.650;2022-10-20T14:55:59;13.10;99.90
9668;DHT22;4872;48.316;10.650;2022-10-20T14:58:35;13.00;99.90
9668;DHT22;4872;48.316;10.650;2022-10-20T15:01:14;13.00;99.90
9668;DHT22;4872;48.316;10.650;2022-10-20T15:03:42;13.10;99.90
9668;DHT22;4872;48.316;10.650;2022-10-20T15:06:12;13.00;99.90
9668;DHT22;4872;48.316;10.650;2022-10-20T15:08:40;13.00;99.90
9668;DHT22;4872;48.316;10.650;2022-10-20T15:11:21;13.10;99.90
9668;DHT22;4872;48.316;10.650;2022-10-20T15:13:49;13.10;99.90
9668;DHT22;4872;48.316;10.650;2022-10-20T15:16:32;13.10;99.90
9668;DHT22;4872;48.316;10.650;2022-10-20T15:19:34;13.10;99.90
9668;DHT22;4872;48.316;10.650;2022-10-20T15:22:08;13.20;99.90
9668;DHT22;4872;48.316;10.650;2022-10-20T15:24:36;13.10;99.90
9668;DHT22;4872;48.316;10.650;2022-10-20T15:27:03;13.10;99.90
9668;DHT22;4872;48.316;10.650;2022-10-20T15:29:31;13.10;99.90
9668;DHT22;4872;48.316;10.650;2022-10-20T15:31:58;13.10;99.90
9668;DHT22;4872;48.316;10.650;2022-10-20T15:34:25;13.10;99.90
9668;DHT22;4872;48.316;10.650;2022-10-20T15:36:54;13.10;99.90
9668;DHT22;4872;48.316;10.650;2022-10-20T15:39:20;13.10;99.90
9668;DHT22;4872;48.316;10.650;2022-10-20T15:41:47;13.10;99.90
9668;DHT22;4872;48.316;10.650;2022-10-20T15:44:16;13.10;99.90
9668;DHT22;4872;48.316;10.650;2022-10-20T15:46:44;13.00;99.90
9668;DHT22;4872;48.316;10.650;2022-10-20T15:49:11;13.00;99.90
9668;DHT22;4872;48.316;10.650;2022-10-20T15:51:40;13.00;99.90
9668;DHT22;4872;48.316;10.650;2022-10-20T15:54:11;13.00;99.90
9668;DHT22;4872;48.316;10.650;2022-10-20T15:56:39;13.00;99.90
9668;DHT22;4872;48.316;10.650;2022-10-20T15:59:06;13.00;99.90
9668;DHT22;4872;48.316;10.650;2022-10-20T16:01:32;12.90;99.90
9668;DHT22;4872;48.316;10.650;2022-10-20T16:04:01;12.90;99.90
9668;DHT22;4872;48.316;10.650;2022-10-20T16:06:28;12.90;99.90
9668;DHT22;4872;48.316;10.650;2022-10-20T16:08:54;12.90;99.90
9668;DHT22;4872;48.316;10.650;2022-10-20T16:11:22;12.90;99.90
9668;DHT22;4872;48.316;10.650;2022-10-20T16:13:49;12.90;99.90
9668;DHT22;4872;48.316;10.650;2022-10-20T16:16:19;12.90;99.90
9668;DHT22;4872;48.316;10.650;2022-10-20T16:18:46;12.90;99.90
9668;DHT22;4872;48.316;10.650;2022-10-20T16:21:13;12.90;99.90
9668;DHT22;4872;48.316;10.650;2022-10-20T16:23:40;12.90;99.90
9668;DHT22;4872;48.316;10.650;2022-10-20T16:26:09;12.90;99.90
9668;DHT22;4872;48.316;10.650;2022-10-20T16:28:37;12.90;99.90
9668;DHT22;4872;48.316;10.650;2022-10-20T16:31:06;12.90;99.90
9668;DHT22;4872;48.316;10.650;2022-10-20T16:33:33;12.80;99.90
9668;DHT22;4872;48.316;10.650;2022-10-20T16:36:02;12.80;99.90
9668;DHT22;4872;48.316;10.650;2022-10-20T16:38:29;12.80;99.90
9668;DHT22;4872;48.316;10.650;2022-10-20T16:40:58;12.80;99.90
9668;DHT22;4872;48.316;10.650;2022-10-20T16:43:25;12.80;99.90
9668;DHT22;4872;48.316;10.650;2022-10-20T16:45:54;12.80;99.90
9668;DHT22;4872;48.316;10.650;2022-10-20T16:48:21;12.70;99.90
9668;DHT22;4872;48.316;10.650;2022-10-20T16:50:48;12.70;99.90
9668;DHT22;4872;48.316;10.650;2022-10-20T16:53:15;12.70;99.90
9668;DHT22;4872;48.316;10.650;2022-10-20T16:55:50;12.70;99.90
9668;DHT22;4872;48.316;10.650;2022-10-20T16:58:18;12.70;99.90
9668;DHT22;4872;48.316;10.650;2022-10-20T17:00:44;12.70;99.90
9668;DHT22;4872;48.316;10.650;2022-10-20T17:03:12;12.70;99.90
9668;DHT22;4872;48.316;10.650;2022-10-20T17:05:39;12.70;99.90
9668;DHT22;4872;48.316;10.650;2022-10-20T17:08:06;12.70;99.90
9668;DHT22;4872;48.316;10.650;2022-10-20T17:10:33;12.70;99.90
9668;DHT22;4872;48.316;10.650;2022-10-20T17:12:59;12.60;99.90
9668;DHT22;4872;48.316;10.650;2022-10-20T17:15:27;12.60;99.90
9668;DHT22;4872;48.316;10.650;2022-10-20T17:17:54;12.60;99.90
9668;DHT22;4872;48.316;10.650;2022-10-20T17:20:22;12.50;99.90
9668;DHT22;4872;48.316;10.650;2022-10-20T17:22:53;12.50;99.90
9668;DHT22;4872;48.316;10.650;2022-10-20T17:25:20;12.60;99.90
9668;DHT22;4872;48.316;10.650;2022-10-20T17:27:46;12.50;99.90
9668;DHT22;4872;48.316;10.650;2022-10-20T17:30:13;12.50;99.90
9668;DHT22;4872;48.316;10.650;2022-10-20T17:32:40;12.50;99.90
9668;DHT22;4872;48.316;10.650;2022-10-20T17:35:08;12.50;99.90
9668;DHT22;4872;48.316;10.650;2022-10-20T17:37:38;12.50;99.90
9668;DHT22;4872;48.316;10.650;2022-10-20T17:40:05;12.50;99.90
9668;DHT22;4872;48.316;10.650;2022-10-20T17:42:32;12.50;99.90
9668;DHT22;4872;48.316;10.650;2022-10-20T17:44:59;12.70;99.90
9668;DHT22;4872;48.316;10.650;2022-10-20T17:47:26;12.50;99.90
9668;DHT22;4872;48.316;10.650;2022-10-20T17:49:52;12.50;99.90
9668;DHT22;4872;48.316;10.650;2022-10-20T17:52:19;12.50;99.90
9668;DHT22;4872;48.316;10.650;2022-10-20T17:54:47;12.60;99.90
9668;DHT22;4872;48.316;10.650;2022-10-20T17:57:14;12.50;99.90
9668;DHT22;4872;48.316;10.650;2022-10-20T17:59:41;12.40;99.90
9668;DHT22;4872;48.316;10.650;2022-10-20T18:02:08;12.40;99.90
9668;DHT22;4872;48.316;10.650;2022-10-20T18:04:35;12.40;99.90
9668;DHT22;4872;48.316;10.650;2022-10-20T18:07:02;12.40;99.90
9668;DHT22;4872;48.316;10.650;2022-10-20T18:09:28;12.30;99.90
9668;DHT22;4872;48.316;10.650;2022-10-20T18:11:57;12.30;99.90
9668;DHT22;4872;48.316;10.650;2022-10-20T18:14:26;12.30;99.90
9668;DHT22;4872;48.316;10.650;2022-10-20T18:16:53;12.30;99.90
9668;DHT22;4872;48.316;10.650;2022-10-20T18:19:20;12.30;99.90
9668;DHT22;4872;48.316;10.650;2022-10-20T18:21:46;12.30;99.90
9668;DHT22;4872;48.316;10.650;2022-10-20T18:24:14;12.20;99.90
9668;DHT22;4872;48.316;10.650;2022-10-20T18:26:42;12.20;99.90
9668;DHT22;4872;48.316;10.650;2022-10-20T18:29:11;12.20;99.90
9668;DHT22;4872;48.316;10.650;2022-10-20T18:31:39;12.20;99.90
9668;DHT22;4872;48.316;10.650;2022-10-20T18:34:08;12.30;99.90
9668;DHT22;4872;48.316;10.650;2022-10-20T18:36:37;12.20;99.90
9668;DHT22;4872;48.316;10.650;2022-10-20T18:39:04;12.00;99.90
9668;DHT22;4872;48.316;10.650;2022-10-20T18:41:33;12.10;99.90
9668;DHT22;4872;48.316;10.650;2022-10-20T18:44:03;12.10;99.90
9668;DHT22;4872;48.316;10.650;2022-10-20T18:46:33;12.20;99.90
9668;DHT22;4872;48.316;10.650;2022-10-20T18:49:01;12.10;99.90
9668;DHT22;4872;48.316;10.650;2022-10-20T18:51:29;12.10;99.90
9668;DHT22;4872;48.316;10.650;2022-10-20T18:53:57;12.10;99.90
9668;DHT22;4872;48.316;10.650;2022-10-20T18:56:25;12.10;99.90
9668;DHT22;4872;48.316;10.650;2022-10-20T18:58:54;12.00;99.90
9668;DHT22;4872;48.316;10.650;2022-10-20T19:01:22;12.10;99.90
9668;DHT22;4872;48.316;10.650;2022-10-20T19:03:51;12.10;99.90
9668;DHT22;4872;48.316;10.650;2022-10-20T19:06:20;12.10;99.90
9668;DHT22;4872;48.316;10.650;2022-10-20T19:08:50;12.10;99.90
9668;DHT22;4872;48.316;10.650;2022-10-20T19:11:19;12.10;99.90
9668;DHT22;4872;48.316;10.650;2022-10-20T19:13:46;12.10;99.90
9668;DHT22;4872;48.316;10.650;2022-10-20T19:16:15;12.10;99.90
9668;DHT22;4872;48.316;10.650;2022-10-20T19:18:43;12.10;99.90
9668;DHT22;4872;48.316;10.650;2022-10-20T19:21:12;12.10;99.90
9668;DHT22;4872;48.316;10.650;2022-10-20T19:23:41;12.00;99.90
9668;DHT22;4872;48.316;10.650;2022-10-20T19:26:09;12.20;99.90
9668;DHT22;4872;48.316;10.650;2022-10-20T19:28:39;12.10;99.90
9668;DHT22;4872;48.316;10.650;2022-10-20T19:31:16;12.20;99.90
9668;DHT22;4872;48.316;10.650;2022-10-20T19:33:44;12.30;99.90
9668;DHT22;4872;48.316;10.650;2022-10-20T19:36:12;12.10;99.90
9668;DHT22;4872;48.316;10.650;2022-10-20T19:38:39;12.10;99.90
9668;DHT22;4872;48.316;10.650;2022-10-20T19:41:06;12.10;99.90
9668;DHT22;4872;48.316;10.650;2022-10-20T19:43:33;12.10;99.90
9668;DHT22;4872;48.316;10.650;2022-10-20T19:46:01;12.00;99.90
9668;DHT22;4872;48.316;10.650;2022-10-20T19:48:28;12.00;99.90
9668;DHT22;4872;48.316;10.650;2022-10-20T19:50:54;12.00;99.90
9668;DHT22;4872;48.316;10.650;2022-10-20T19:53:22;12.00;99.90
9668;DHT22;4872;48.316;10.650;2022-10-20T19:55:49;11.80;99.90
9668;DHT22;4872;48.316;10.650;2022-10-20T19:58:17;11.80;99.90
9668;DHT22;4872;48.316;10.650;2022-10-20T20:00:47;11.70;99.90
9668;DHT22;4872;48.316;10.650;2022-10-20T20:03:14;11.70;99.90
9668;DHT22;4872;48.316;10.650;2022-10-20T20:05:41;11.70;99.90
9668;DHT22;4872;48.316;10.650;2022-10-20T20:08:09;11.60;99.90
9668;DHT22;4872;48.316;10.650;2022-10-20T20:10:37;11.60;99.90
9668;DHT22;4872;48.316;10.650;2022-10-20T20:13:04;11.60;99.90
9668;DHT22;4872;48.316;10.650;2022-10-20T20:15:31;11.60;99.90
9668;DHT22;4872;48.316;10.650;2022-10-20T20:17:58;11.60;99.90
9668;DHT22;4872;48.316;10.650;2022-10-20T20:20:24;11.60;99.90
9668;DHT22;4872;48.316;10.650;2022-10-20T20:22:51;11.70;99.90
9668;DHT22;4872;48.316;10.650;2022-10-20T20:25:18;11.70;99.90
9668;DHT22;4872;48.316;10.650;2022-10-20T20:27:46;11.70;99.90
9668;DHT22;4872;48.316;10.650;2022-10-20T20:30:13;11.70;99.90
9668;DHT22;4872;48.316;10.650;2022-10-20T20:32:40;11.80;99.90